Huvudsida
METAR-TAF:

METAR-TAF

Flygplatser :

Hat Yai internationella flygplats

Hat Yai, Thailand

latitud: 06-55N, longitud: 100-26E, höjd: 27 m

Aktuellt väderrapport

Denna rapport gjordes för 20 minuter sedan, klockan 21:00 UTC
Stilla vind
Temperatur 23°C
Fuktighet 94%
Tryck 1011 hPa
Sikt 10 km eller mer
Få moln på en höjd av 2000 ft

METAR: VTSS 222100Z 00000KT 9999 FEW020 23/22 Q1011 NOSIG

Tid: 04:20 (21:20 UTC)

Väderprognos

Denna rapport gjordes för 4 timmar och 20 minuter sedan, klockan 17:00 UTC
Prognos gäller från 22 kl. 18 UTC till 23 kl. 18 UTC
Vind kt från nord
Sikt 10 km eller mer
Få moln på en höjd av 2000 ft
Blir
från 23 kl. 01 UTC till 23 kl. 03 UTC
Vind 12 kt från ost/nordost
Blir
från 23 kl. 15 UTC till 23 kl. 17 UTC
Vind 3 kt från nord/nordväst

TAF: VTSS 221700Z 2218/2318 00000KT 9999 FEW020 BECMG 2301/2303 06012KT BECMG 2315/2317 33003KT

Aktuella väderrapporter och prognoser från 4000 flygplatser (METAR- och TAF-rapporter).

De tillgängliga stationerna syns som gula och röda prickar på kartan.

För musen över prickarna för att se namnen på stationerna.

Klicka sedan för att få väderrapporter och prognoser.

För att ändra kartan: Klicka på de gröna knapparna med ett svart kors på för att zooma in; den gröna knappen med ett streck på för att zooma ut; eller på de gröna pilarna för angränsande kartor.


METAR-TAF: